DW7160 La Colilla ES current weather conditions

sailwx.info

Wind from 196 at 2 knots gusting 4

Air temperature 12.8° C
Dewpoint 9.6° C

Last reported at 2019-Sep-21 04:00 UTC.
Time now 2019-Sep-21 04:41 UTC

Location: N 40°39' W 004°46'.
View on Google Maps.

See reports from other nearby stations

  
Tides and Currents Weather Stations Pressure Air Temp Water Temp Dewpoint Dewpoint Depression Visibility Wind Speed Wind Dir Waves Ship Positions
date/time (UTC)wind fromknots sea level pressurealtimeterstation pressurevisibilityair tempwater tempwave heightnotes
2019-Sep-21 04:00 196 2 gusting 4 12.8
2019-Sep-21 03:50 201 2 gusting 5 12.8
2019-Sep-21 03:40 199 2 gusting 5 13.3
2019-Sep-21 03:30 192 2 gusting 3 13.3
2019-Sep-21 03:20 177 13.9
2019-Sep-21 03:10 177 0 gusting 2 13.9
2019-Sep-21 03:00 176 1 gusting 3 13.9
2019-Sep-21 02:50 171 13.3
2019-Sep-21 02:40 171 12.8
2019-Sep-21 02:30 179 3 gusting 9 13.3
2019-Sep-21 02:20 188 4 gusting 7 13.3
2019-Sep-21 02:10 186 5 gusting 6 13.3
2019-Sep-21 02:00 183 4 gusting 7 13.3
2019-Sep-21 01:50 189 4 gusting 6 13.3
2019-Sep-21 01:40 201 2 gusting 4 13.3
2019-Sep-21 01:30 200 2 gusting 6 13.3
2019-Sep-21 01:20 196 13.3
2019-Sep-21 01:10 196 0 gusting 2 13.3
2019-Sep-21 01:00 196 1 gusting 4 13.3
2019-Sep-21 00:50 171 1 gusting 3 13.3
2019-Sep-21 00:40 171 13.3
2019-Sep-21 00:30 171 1 gusting 4 13.3
2019-Sep-21 00:20 167 3 gusting 5 13.9
2019-Sep-21 00:10 184 0 gusting 2 13.9
2019-Sep-21 00:00 184 14.4
2019-Sep-20 23:50 14.4
2019-Sep-20 23:40 14.4
2019-Sep-20 23:30 14.4
2019-Sep-20 23:20 184 0 gusting 1 14.4
2019-Sep-20 23:10 184 1 gusting 2 14.4
2019-Sep-20 23:00 184 0 gusting 2 14.4
2019-Sep-20 22:50 184 0 gusting 2 15.0
2019-Sep-20 22:40 183 2 gusting 4 15.0
2019-Sep-20 22:30 182 2 gusting 4 15.0
2019-Sep-20 22:20 179 1 gusting 4 15.0
2019-Sep-20 22:10 178 1 gusting 4 15.6
2019-Sep-20 22:00 180 5 gusting 8 15.6
2019-Sep-20 21:50 178 6 gusting 10 15.6
2019-Sep-20 21:40 181 4 gusting 7 15.6
2019-Sep-20 21:30 176 6 gusting 11 15.6
2019-Sep-20 21:20 173 6 gusting 9 15.6
2019-Sep-20 21:10 172 5 gusting 7 15.0
2019-Sep-20 21:00 173 5 gusting 6 15.0
2019-Sep-20 20:50 180 4 gusting 7 14.4
2019-Sep-20 20:40 200 0 gusting 3 15.0
2019-Sep-20 20:30 200 15.0
2019-Sep-20 20:20 200 0 gusting 2 15.0
2019-Sep-20 20:10 200 1 gusting 3 14.4
2019-Sep-20 20:00 200 0 gusting 2 14.4
2019-Sep-20 19:50 200 14.4
2019-Sep-20 19:40 14.4
2019-Sep-20 19:30 200 1 gusting 3 14.4
2019-Sep-20 19:20 200 14.4
2019-Sep-20 19:10 200 14.4
2019-Sep-20 19:00 199 1 gusting 6 14.4
2019-Sep-20 18:50 201 2 gusting 5 14.4
2019-Sep-20 18:40 183 3 gusting 5 14.4
2019-Sep-20 18:30 180 4 gusting 6 14.4
2019-Sep-20 18:20 176 6 gusting 10 13.9
2019-Sep-20 18:10 190 7 gusting 15 14.4
2019-Sep-20 18:00 181 10 gusting 15 14.4
2019-Sep-20 17:50 179 13 gusting 23 15.6
2019-Sep-20 17:40 191 7 gusting 11 18.9
2019-Sep-20 17:30 190 7 gusting 12 19.4
2019-Sep-20 17:20 184 7 gusting 11 20.0
2019-Sep-20 17:10 203 8 gusting 14 20.0
2019-Sep-20 17:00 194 8 gusting 14 20.6
2019-Sep-20 16:50 193 7 gusting 12 21.1
2019-Sep-20 16:40 189 7 gusting 13 21.1
2019-Sep-20 16:30 199 8 gusting 13 21.1
2019-Sep-20 16:20 203 10 gusting 16 21.1
2019-Sep-20 16:10 191 8 gusting 13 21.7
2019-Sep-20 16:00 186 8 gusting 13 21.7
2019-Sep-20 15:50 183 9 gusting 13 21.7
2019-Sep-20 15:40 189 9 gusting 14 21.1
2019-Sep-20 15:30 171 8 gusting 13 20.6
2019-Sep-20 15:20 172 8 gusting 13 21.1
2019-Sep-20 15:10 185 9 gusting 13 21.1
2019-Sep-20 15:00 190 9 gusting 13 21.1
2019-Sep-20 14:50 199 8 gusting 15 21.7
2019-Sep-20 14:40 189 8 gusting 13 21.1
2019-Sep-20 14:30 181 7 gusting 12 21.7
2019-Sep-20 14:20 183 7 gusting 13 21.1
2019-Sep-20 14:10 194 6 gusting 10 21.1
2019-Sep-20 14:00 199 5 gusting 9 21.1
2019-Sep-20 13:50 183 7 gusting 13 21.1
2019-Sep-20 13:40 196 6 gusting 13 21.1
2019-Sep-20 13:30 187 5 gusting 9 21.7
2019-Sep-20 13:20 195 6 gusting 12 21.1
2019-Sep-20 13:10 197 6 gusting 12 21.1
2019-Sep-20 13:00 203 6 gusting 12 20.6
2019-Sep-20 12:50 203 5 gusting 10 20.6
2019-Sep-20 12:40 201 5 gusting 8 20.0
2019-Sep-20 12:30 215 4 gusting 7 20.0
2019-Sep-20 12:20 206 6 gusting 11 20.0
2019-Sep-20 12:10 193 7 gusting 13 20.6
2019-Sep-20 12:00 176 8 gusting 13 20.6
2019-Sep-20 11:50 193 9 gusting 13 20.6
2019-Sep-20 11:40 194 9 gusting 13 19.4
2019-Sep-20 11:30 180 8 gusting 13 19.4
2019-Sep-20 11:20 181 8 gusting 14 20.0
2019-Sep-20 11:10 197 8 gusting 13 20.0
2019-Sep-20 11:00 195 8 gusting 12 20.0
2019-Sep-20 10:50 202 8 gusting 13 19.4
2019-Sep-20 10:40 189 8 gusting 13 19.4
2019-Sep-20 10:30 195 8 gusting 13 20.0
2019-Sep-20 10:20 191 7 gusting 13 20.0
2019-Sep-20 10:10 191 8 gusting 13 19.4
2019-Sep-20 10:00 201 9 gusting 14 19.4
2019-Sep-20 09:50 182 8 gusting 12 18.9
2019-Sep-20 09:40 204 8 gusting 13 18.9
2019-Sep-20 09:30 196 8 gusting 12 18.9
2019-Sep-20 09:20 185 8 gusting 12 18.3
2019-Sep-20 09:10 184 9 gusting 13 17.8
2019-Sep-20 09:00 181 9 gusting 13 17.8
2019-Sep-20 08:50 190 8 gusting 13 17.2
2019-Sep-20 08:40 179 8 gusting 12 17.2
2019-Sep-20 08:30 178 7 gusting 12 16.7
2019-Sep-20 08:20 173 7 gusting 12 16.7
2019-Sep-20 08:10 170 6 gusting 10 16.1
2019-Sep-20 08:00 169 7 gusting 11 16.1
2019-Sep-20 07:50 173 7 gusting 13 16.1
2019-Sep-20 07:40 173 6 gusting 11 15.6
2019-Sep-20 07:30 171 7 gusting 11 15.6
2019-Sep-20 07:20 169 6 gusting 9 15.6
2019-Sep-20 07:10 171 6 gusting 9 15.6
2019-Sep-20 07:00 171 6 gusting 10 15.6
2019-Sep-20 06:50 172 6 gusting 9 15.0
2019-Sep-20 06:40 169 6 gusting 8 15.0
2019-Sep-20 06:30 171 4 gusting 7 15.0
2019-Sep-20 06:20 173 4 gusting 6 15.0
2019-Sep-20 06:10 171 4 gusting 6 15.0
2019-Sep-20 06:00 172 5 gusting 7 15.6
2019-Sep-20 05:50 171 5 gusting 9 15.6
2019-Sep-20 05:40 175 6 gusting 8 15.6
2019-Sep-20 05:30 172 5 gusting 9 15.6
2019-Sep-20 05:20 172 5 gusting 7 15.6
2019-Sep-20 05:10 173 5 gusting 8 15.6
2019-Sep-20 05:00 181 5 gusting 6 15.6
2019-Sep-20 04:50 186 4 gusting 6 15.6
2019-Sep-20 04:40 203 1 gusting 4 15.6
2019-Sep-20 04:30 177 2 gusting 5 16.1
2019-Sep-20 04:20 176 3 gusting 6 16.1
2019-Sep-20 04:10 173 3 gusting 6 16.1
2019-Sep-20 04:00 172 3 gusting 6 16.1
2019-Sep-20 03:50 167 2 gusting 5 15.6
2019-Sep-20 03:40 184 2 gusting 4 15.6
2019-Sep-20 03:30 184 0 gusting 2 16.1
2019-Sep-20 03:20 184 0 gusting 2 16.1
2019-Sep-20 03:10 184 1 gusting 3 16.1
2019-Sep-20 03:00 184 1 gusting 3 16.1
2019-Sep-20 02:50 183 0 gusting 3 16.1
2019-Sep-20 02:40 183 16.1
2019-Sep-20 02:30 183 16.1
2019-Sep-20 02:20 183 16.7
2019-Sep-20 02:10 183 16.7
2019-Sep-20 02:00 183 16.7
2019-Sep-20 01:50 183 16.7
2019-Sep-20 01:40 183 16.7
2019-Sep-20 01:30 16.7
2019-Sep-20 01:20 183 0 gusting 2 16.7
2019-Sep-20 01:10 183 1 gusting 3 16.7
2019-Sep-20 01:00 182 2 gusting 3 17.2
2019-Sep-20 00:50 182 2 gusting 3 17.2
2019-Sep-20 00:40 186 2 gusting 3 17.2
2019-Sep-20 00:30 190 1 gusting 3 16.7
2019-Sep-20 00:20 194 1 gusting 4 17.2
2019-Sep-20 00:10 210 0 gusting 3 17.2
2019-Sep-20 00:00 210 0 gusting 3 16.7
2019-Sep-19 23:50 210 0 gusting 2 16.7
2019-Sep-19 23:40 210 16.7
2019-Sep-19 23:30 210 0 gusting 3 16.7
2019-Sep-19 23:20 210 0 gusting 2 16.1
2019-Sep-19 23:10 210 0 gusting 2 16.7
2019-Sep-19 23:00 210 0 gusting 2 15.6
2019-Sep-19 22:50 210 15.6
2019-Sep-19 22:40 205 0 gusting 2 16.7
2019-Sep-19 22:30 190 2 gusting 4 17.8
2019-Sep-19 22:20 201 3 gusting 5 17.2
2019-Sep-19 22:10 239 16.1
2019-Sep-19 22:00 239 15.6
2019-Sep-19 21:50 239 15.6
2019-Sep-19 21:40 239 16.1
2019-Sep-19 21:30 239 16.7
2019-Sep-19 21:20 239 0 gusting 2 17.2
2019-Sep-19 21:10 240 0 gusting 2 17.8
2019-Sep-19 21:00 240 0 gusting 2 17.8
2019-Sep-19 20:50 255 0 gusting 3 17.2
2019-Sep-19 20:40 288 17.2
2019-Sep-19 20:30 288 17.8
2019-Sep-19 20:20 288 18.3
2019-Sep-19 20:10 18.3
2019-Sep-19 20:00 18.9
2019-Sep-19 19:50 19.4
2019-Sep-19 19:40 288 18.9
2019-Sep-19 19:30 288 18.9
2019-Sep-19 19:20 288 18.9
2019-Sep-19 19:10 288 19.4
2019-Sep-19 19:00 19.4
2019-Sep-19 18:50 18.9
2019-Sep-19 18:40 288 18.9
2019-Sep-19 18:30 288 18.9
2019-Sep-19 18:20 18.9
2019-Sep-19 18:10 288 18.9
2019-Sep-19 18:00 18.9
2019-Sep-19 17:50 18.9
2019-Sep-19 17:40 19.4
2019-Sep-19 17:30 19.4
2019-Sep-19 17:20 288 19.4
2019-Sep-19 17:10 292 1 gusting 3 20.0
2019-Sep-19 17:00 298 0 gusting 2 21.1
2019-Sep-19 16:50 300 0 gusting 2 21.7
2019-Sep-19 16:40 309 1 gusting 5 22.2
2019-Sep-19 16:30 184 3 gusting 4 22.8
2019-Sep-19 16:20 175 2 gusting 4 22.2
2019-Sep-19 16:10 175 0 gusting 2 22.2
2019-Sep-19 16:00 173 2 gusting 6 21.7
2019-Sep-19 15:50 189 4 gusting 9 21.7
2019-Sep-19 15:40 293 0 gusting 3 22.8
2019-Sep-19 15:30 282 0 gusting 2 22.2
2019-Sep-19 15:20 242 0 gusting 4 22.2
2019-Sep-19 15:10 261 2 gusting 6 22.2
2019-Sep-19 15:00 342 2 gusting 5 23.9
2019-Sep-19 14:50 349 2 gusting 6 23.9
2019-Sep-19 14:40 329 2 gusting 6 23.9
2019-Sep-19 14:30 319 2 gusting 7 23.9
2019-Sep-19 14:20 307 2 gusting 6 23.3
2019-Sep-19 14:10 303 1 gusting 4 22.8
2019-Sep-19 14:00 313 0 gusting 4 23.3
2019-Sep-19 13:50 318 1 gusting 3 23.3
2019-Sep-19 13:40 299 1 gusting 4 23.3
2019-Sep-19 13:30 357 2 gusting 5 23.3
2019-Sep-19 13:20 355 2 gusting 5 23.3
2019-Sep-19 13:10 356 2 gusting 7 23.3
2019-Sep-19 13:00 354 4 gusting 6 23.9
2019-Sep-19 12:50 326 2 gusting 6 25.0
2019-Sep-19 12:40 187 1 gusting 7 25.6
2019-Sep-19 12:30 179 0 gusting 3 25.6
2019-Sep-19 12:20 179 0 gusting 2 25.0
2019-Sep-19 12:10 178 1 gusting 5 25.6
2019-Sep-19 12:00 223 1 gusting 7 25.0
2019-Sep-19 11:50 202 1 gusting 6 24.4
2019-Sep-19 11:40 193 0 gusting 4 24.4
2019-Sep-19 11:30 192 2 gusting 6 24.4
2019-Sep-19 11:20 202 1 gusting 6 24.4
2019-Sep-19 11:10 197 1 gusting 6 24.4
2019-Sep-19 11:00 252 0 gusting 4 23.9
2019-Sep-19 10:50 262 0 gusting 3 23.9
2019-Sep-19 10:40 240 23.3
2019-Sep-19 10:30 240 0 gusting 3 23.3
2019-Sep-19 10:20 240 0 gusting 2 22.2
2019-Sep-19 10:10 240 0 gusting 3 22.2
2019-Sep-19 10:00 238 0 gusting 2 21.7
2019-Sep-19 09:50 213 0 gusting 2 21.1
2019-Sep-19 09:40 198 1 gusting 3 20.0
2019-Sep-19 09:30 196 0 gusting 2 20.0
2019-Sep-19 09:20 196 0 gusting 2 19.4
2019-Sep-19 09:10 196 18.9
2019-Sep-19 09:00 196 0 gusting 2 18.9
2019-Sep-19 08:50 196 0 gusting 2 17.8
2019-Sep-19 08:40 196 0 gusting 2 16.7
2019-Sep-19 08:30 196 0 gusting 2 15.6
2019-Sep-19 08:20 196 14.4
2019-Sep-19 08:10 13.3
2019-Sep-19 08:00 12.8
2019-Sep-19 07:50 196 12.2
2019-Sep-19 07:40 196 12.2
2019-Sep-19 07:30 196 11.7
2019-Sep-19 07:20 11.1
2019-Sep-19 07:10 11.7
2019-Sep-19 07:00 196 11.7
2019-Sep-19 06:50 196 11.7
2019-Sep-19 06:40 11.7
2019-Sep-19 06:30 11.7
2019-Sep-19 06:20 11.7
2019-Sep-19 06:10 11.7
2019-Sep-19 06:00 11.7
2019-Sep-19 05:50 11.7
2019-Sep-19 05:40 196 11.7
2019-Sep-19 05:30 196 11.7
2019-Sep-19 05:20 11.7
2019-Sep-19 05:10 11.7
2019-Sep-19 05:00 12.2
2019-Sep-19 04:50 12.2
2019-Sep-19 04:40 11.7
2019-Sep-19 04:30 11.7
2019-Sep-19 04:20 11.7
2019-Sep-19 04:10 196 11.7
2019-Sep-19 04:00 12.2